Time;durP1;ratioP1;P1;durP2;ratioP2;P2;SDS_P1;SDS_P2;PMS_P1;PMS_P2;Temp;Humidity;BMP_temperature;BMP_pressure;BME280_temperature;BME280_humidity;BME280_pressure;Samples;Min_cycle;Max_cycle;Signal;HPM_P1;HPM_P2
2021/10/28 00:12:12;;;;;;;;;;;;;;;22.05;52.08;100941.56;2034447;29;747;-56
2021/10/28 00:12:15;;;;;;;;;;;;;;;22.01;51.87;100950.69;2039146;28;1113;-56
2021/10/28 00:13:17;;;;;;;;;;;;;;;21.98;52.04;100958.91;2058054;28;847;-56
2021/10/28 00:14:19;;;;;;;;;;;;;;;21.99;52.26;100954.41;2058026;28;804;-56
2021/10/28 00:15:40;;;;;;;;;;;;;;;21.98;52.71;100952.63;2057995;28;880;-56
2021/10/28 00:16:42;;;;;;;;;;;;;;;21.99;53.30;100949.88;2058069;28;899;-56
2021/10/28 00:17:58;;;;;;;;;;;;;;;21.99;52.27;100944.47;2058097;28;839;-56
2021/10/28 00:19:02;;;;;;;;;;;;;;;22.05;52.76;100954.16;2058062;28;879;-57
2021/10/28 00:20:03;;;;;;;;;;;;;;;22.00;52.45;100961.56;2058012;28;879;-56
2021/10/28 00:21:04;;;;;;;;;;;;;;;21.95;52.21;100960.84;2057618;28;1197;-56
2021/10/28 00:22:05;;;;;;;;;;;;;;;21.88;52.57;100957.47;2058201;28;934;-56
2021/10/28 00:23:06;;;;;;;;;;;;;;;21.90;51.88;100961.88;2083286;28;854;-56
2021/10/28 00:24:09;;;;;;;;;;;;;;;21.95;51.92;100956.31;2083077;28;883;-56
2021/10/28 00:25:09;;;;;;;;;;;;;;;21.97;51.59;100958.97;2082661;28;2020;-56
2021/10/28 00:26:10;;;;;;;;;;;;;;;21.99;51.79;100959.78;2082917;28;847;-56
2021/10/28 00:27:10;;;;;;;;;;;;;;;21.99;52.14;100957.97;2083131;28;1892;-56
2021/10/28 00:28:11;;;;;;;;;;;;;;;22.08;51.15;100961.25;2083199;28;811;-56
2021/10/28 00:29:15;;;;;;;;;;;;;;;22.05;51.81;100954.16;2083136;28;819;-56
2021/10/28 00:30:17;;;;;;;;;;;;;;;21.96;51.53;100952.69;2083191;28;831;-56
2021/10/28 00:31:17;;;;;;;;;;;;;;;21.93;51.36;100960.88;2083299;28;876;-56
2021/10/28 00:32:17;;;;;;;;;;;;;;;21.92;52.32;100953.72;2082871;28;784;-56
2021/10/28 00:33:18;;;;;;;;;;;;;;;21.98;52.57;100952.63;2083183;28;699;-56
2021/10/28 00:34:18;;;;;;;;;;;;;;;21.92;52.40;100951.94;2083195;28;792;-56
2021/10/28 00:35:19;;;;;;;;;;;;;;;21.96;53.44;100954.50;2082795;28;839;-56
2021/10/28 00:36:19;;;;;;;;;;;;;;;21.96;51.99;100957.22;2083206;28;839;-56
2021/10/28 00:37:19;;;;;;;;;;;;;;;21.94;52.00;100954.56;2084862;28;1206;-58
2021/10/28 00:38:19;;;;;;;;;;;;;;;21.89;50.87;100952.03;2091270;28;1009;-56
2021/10/28 00:39:19;;;;;;;;;;;;;;;21.92;51.93;100942.94;2091475;28;1001;-56
2021/10/28 00:40:20;;;;;;;;;;;;;;;21.88;51.70;100946.69;2091349;28;981;-56
2021/10/28 00:41:21;;;;;;;;;;;;;;;21.88;51.96;100952.09;2091432;28;858;-56
2021/10/28 00:42:21;;;;;;;;;;;;;;;21.86;51.88;100952.16;2091282;28;875;-57
2021/10/28 00:43:22;;;;;;;;;;;;;;;21.86;53.18;100949.47;2091160;28;1032;-56
2021/10/28 00:44:22;;;;;;;;;;;;;;;21.84;52.79;100950.44;2091376;28;1889;-56
2021/10/28 00:45:24;;;;;;;;;;;;;;;21.84;50.68;100961.22;2091385;28;985;-56
2021/10/28 00:46:27;;;;;;;;;;;;;;;21.82;51.68;100950.50;2090988;28;799;-57
2021/10/28 00:47:30;;;;;;;;;;;;;;;21.83;51.89;100954.97;2091419;28;791;-56
2021/10/28 00:48:31;;;;;;;;;;;;;;;21.85;51.58;100953.09;2091372;28;913;-56
2021/10/28 00:49:31;;;;;;;;;;;;;;;21.83;52.49;100959.47;2091452;28;877;-56
2021/10/28 00:50:31;;;;;;;;;;;;;;;21.82;52.02;100955.00;2091338;28;821;-56
2021/10/28 00:51:31;;;;;;;;;;;;;;;21.83;53.11;100954.06;2091197;28;794;-56
2021/10/28 00:52:33;;;;;;;;;;;;;;;21.84;52.27;100950.44;2091231;28;854;-56
2021/10/28 00:53:34;;;;;;;;;;;;;;;21.91;51.85;100963.66;2091417;28;842;-57
2021/10/28 00:54:34;;;;;;;;;;;;;;;21.89;53.30;100953.84;2091321;28;866;-56
2021/10/28 00:55:35;;;;;;;;;;;;;;;21.89;52.02;100960.13;2091355;28;795;-56
2021/10/28 00:56:35;;;;;;;;;;;;;;;21.90;52.55;100952.91;2091181;28;1070;-56
2021/10/28 00:57:36;;;;;;;;;;;;;;;21.91;52.07;100958.25;2091288;28;961;-56
2021/10/28 00:58:36;;;;;;;;;;;;;;;21.86;52.22;100959.34;2091300;28;858;-56
2021/10/28 00:59:36;;;;;;;;;;;;;;;21.87;52.68;100967.41;2091244;28;957;-56
2021/10/28 01:00:36;;;;;;;;;;;;;;;21.84;52.95;100962.13;2091342;28;1095;-56
2021/10/28 01:01:36;;;;;;;;;;;;;;;21.87;51.42;100967.41;2091387;28;1024;-56
2021/10/28 01:02:36;;;;;;;;;;;;;;;21.88;51.55;100971.84;2091206;28;1123;-56
2021/10/28 01:03:39;;;;;;;;;;;;;;;21.87;50.97;100964.69;2091324;28;785;-56
2021/10/28 01:04:40;;;;;;;;;;;;;;;21.88;51.26;100962.88;2091070;28;1973;-56
2021/10/28 01:05:41;;;;;;;;;;;;;;;21.82;52.25;100966.69;2091176;28;996;-56
2021/10/28 01:06:41;;;;;;;;;;;;;;;21.83;52.16;100963.06;2091272;28;924;-56
2021/10/28 01:07:41;;;;;;;;;;;;;;;21.81;50.88;100961.34;2091269;28;977;-56
2021/10/28 01:08:43;;;;;;;;;;;;;;;21.76;53.18;100962.41;2091211;28;1082;-56
2021/10/28 01:09:44;;;;;;;;;;;;;;;21.79;51.96;100963.19;2091282;28;795;-56
2021/10/28 01:10:47;;;;;;;;;;;;;;;21.88;54.02;100970.97;2082284;28;1210;-56
2021/10/28 01:11:48;;;;;;;;;;;;;;;21.84;51.70;100961.22;2083028;28;869;-56
2021/10/28 01:12:49;;;;;;;;;;;;;;;21.85;52.89;100968.38;2091380;28;814;-56
2021/10/28 01:13:49;;;;;;;;;;;;;;;21.82;52.59;100969.38;2082394;28;1141;-56
2021/10/28 01:14:49;;;;;;;;;;;;;;;21.80;52.86;100965.84;2082522;28;776;-57
2021/10/28 01:15:52;;;;;;;;;;;;;;;21.82;52.64;100960.41;2090906;28;816;-56
2021/10/28 01:16:56;;;;;;;;;;;;;;;21.76;53.52;100962.41;2091259;28;828;-56
2021/10/28 01:17:56;;;;;;;;;;;;;;;21.83;52.13;100963.06;2091283;28;936;-56
2021/10/28 01:18:56;;;;;;;;;;;;;;;21.80;51.61;100959.56;2091130;28;1005;-56
2021/10/28 01:19:57;;;;;;;;;;;;;;;21.77;51.90;100955.19;2091213;28;835;-56
2021/10/28 01:20:57;;;;;;;;;;;;;;;21.75;51.48;100957.06;2091037;28;1001;-56
2021/10/28 01:21:57;;;;;;;;;;;;;;;21.79;52.00;100957.81;2091054;28;831;-56
2021/10/28 01:22:57;;;;;;;;;;;;;;;21.74;51.87;100956.19;2091199;28;855;-56
2021/10/28 01:23:57;;;;;;;;;;;;;;;21.76;53.48;100946.22;2091192;28;1413;-56
2021/10/28 01:24:57;;;;;;;;;;;;;;;21.75;52.32;100946.28;2091132;28;1951;-56
2021/10/28 01:26:02;;;;;;;;;;;;;;;21.73;52.50;100954.44;2091123;28;823;-57
2021/10/28 01:27:04;;;;;;;;;;;;;;;21.77;51.71;100950.69;2091254;28;819;-56
2021/10/28 01:28:05;;;;;;;;;;;;;;;21.73;51.38;100948.16;2091131;28;1115;-56
2021/10/28 01:29:05;;;;;;;;;;;;;;;21.75;53.17;100948.97;2091190;28;973;-57
2021/10/28 01:30:06;;;;;;;;;;;;;;;21.81;51.74;100951.44;2091251;28;794;-56
2021/10/28 01:31:10;;;;;;;;;;;;;;;21.80;52.19;100949.69;2091113;28;1122;-56
2021/10/28 01:32:10;;;;;;;;;;;;;;;21.85;53.20;100947.69;2091052;28;838;-56
2021/10/28 01:33:10;;;;;;;;;;;;;;;21.75;53.72;100943.56;2091243;28;755;-56
2021/10/28 01:34:12;;;;;;;;;;;;;;;21.81;52.86;100950.53;2090971;28;929;-56
2021/10/28 01:35:13;;;;;;;;;;;;;;;21.81;51.46;100956.84;2091103;28;866;-56
2021/10/28 01:36:13;;;;;;;;;;;;;;;21.83;51.49;100962.16;2091252;28;1025;-56
2021/10/28 01:37:15;;;;;;;;;;;;;;;21.76;51.90;100951.63;2092127;28;1490;-56
2021/10/28 01:38:16;;;;;;;;;;;;;;;21.70;52.90;100938.38;2092565;28;862;-56
2021/10/28 01:39:17;;;;;;;;;;;;;;;21.73;52.31;100943.66;2092715;28;1839;-56
2021/10/28 01:40:17;;;;;;;;;;;;;;;21.82;52.88;100955.00;2092731;28;822;-56
2021/10/28 01:41:18;;;;;;;;;;;;;;;21.81;52.96;100947.84;2092632;28;985;-56
2021/10/28 01:42:18;;;;;;;;;;;;;;;21.84;51.48;100942.34;2092660;28;775;-56
2021/10/28 01:43:18;;;;;;;;;;;;;;;21.77;52.63;100945.28;2092585;28;799;-56
2021/10/28 01:44:19;;;;;;;;;;;;;;;21.79;51.90;100947.03;2092675;28;981;-56
2021/10/28 01:45:20;;;;;;;;;;;;;;;21.83;51.96;100946.88;2092606;28;913;-56
2021/10/28 01:46:22;;;;;;;;;;;;;;;21.79;51.99;100941.63;2092625;28;780;-56
2021/10/28 01:47:22;;;;;;;;;;;;;;;21.73;53.38;100951.75;2092678;28;819;-56
2021/10/28 01:48:22;;;;;;;;;;;;;;;21.70;53.22;100949.16;2092549;28;800;-56
2021/10/28 01:49:24;;;;;;;;;;;;;;;21.77;52.36;100950.69;2083804;28;866;-56
2021/10/28 01:50:25;;;;;;;;;;;;;;;21.81;52.46;100954.13;2084088;28;1053;-56
2021/10/28 01:51:25;;;;;;;;;;;;;;;21.77;52.92;100945.28;2092244;28;977;-56
2021/10/28 01:52:25;;;;;;;;;;;;;;;21.82;51.65;100947.81;2092663;28;843;-56
2021/10/28 01:53:25;;;;;;;;;;;;;;;21.82;51.88;100944.22;2092695;28;814;-56
2021/10/28 01:54:27;;;;;;;;;;;;;;;21.79;51.44;100944.31;2092607;28;800;-56
2021/10/28 01:55:27;;;;;;;;;;;;;;;21.74;53.25;100950.81;2092640;28;690;-56
2021/10/28 01:56:27;;;;;;;;;;;;;;;21.74;51.36;100947.22;2092295;28;1188;-56
2021/10/28 01:57:28;;;;;;;;;;;;;;;21.73;51.49;100954.44;2092632;28;1004;-56
2021/10/28 01:58:28;;;;;;;;;;;;;;;21.70;53.77;100950.94;2092616;28;843;-56
2021/10/28 01:59:28;;;;;;;;;;;;;;;21.69;54.12;100949.19;2092604;28;1103;-56
2021/10/28 02:00:29;;;;;;;;;;;;;;;21.69;52.80;100943.78;2092511;28;851;-56
2021/10/28 02:01:30;;;;;;;;;;;;;;;21.59;52.13;100952.19;2092553;28;858;-56
2021/10/28 02:02:30;;;;;;;;;;;;;;;21.71;52.33;100947.31;2092487;28;874;-56
2021/10/28 02:03:30;;;;;;;;;;;;;;;21.71;52.93;100945.53;2092522;28;961;-56
2021/10/28 02:04:30;;;;;;;;;;;;;;;21.73;51.55;100951.75;2092376;28;1917;-56
2021/10/28 02:05:31;;;;;;;;;;;;;;;21.70;52.36;100948.25;2092494;28;1025;-56
2021/10/28 02:06:31;;;;;;;;;;;;;;;21.74;51.42;100947.22;2092431;28;970;-56
2021/10/28 02:07:31;;;;;;;;;;;;;;;21.75;52.06;100952.56;2092526;28;866;-56
2021/10/28 02:08:31;;;;;;;;;;;;;;;21.70;51.40;100953.66;2092440;28;1217;-56
2021/10/28 02:09:32;;;;;;;;;;;;;;;21.64;51.64;100953.88;2092198;28;850;-56
2021/10/28 02:10:32;;;;;;;;;;;;;;;21.64;52.54;100948.47;2092468;28;884;-56
2021/10/28 02:11:33;;;;;;;;;;;;;;;21.55;52.50;100942.44;2092463;28;731;-56
2021/10/28 02:12:33;;;;;;;;;;;;;;;21.63;51.77;100947.59;2092142;28;791;-56
2021/10/28 02:13:34;;;;;;;;;;;;;;;21.74;51.99;100950.81;2092406;28;798;-56
2021/10/28 02:14:34;;;;;;;;;;;;;;;21.77;51.74;100956.09;2092437;28;843;-56
2021/10/28 02:15:34;;;;;;;;;;;;;;;21.72;52.03;100955.38;2092453;28;1033;-56
2021/10/28 02:16:34;;;;;;;;;;;;;;;21.74;52.20;100952.59;2092487;28;1408;-56
2021/10/28 02:17:35;;;;;;;;;;;;;;;21.74;51.87;100955.28;2092388;28;687;-56
2021/10/28 02:18:35;;;;;;;;;;;;;;;21.76;53.00;100956.13;2092010;28;1125;-56
2021/10/28 02:19:36;;;;;;;;;;;;;;;21.76;51.31;100954.31;2092475;28;808;-56
2021/10/28 02:20:38;;;;;;;;;;;;;;;21.70;51.91;100956.34;2092455;28;846;-56
2021/10/28 02:21:38;;;;;;;;;;;;;;;21.70;51.97;100953.66;2092034;28;922;-57
2021/10/28 02:22:38;;;;;;;;;;;;;;;21.76;52.27;100951.63;2092321;28;986;-57
2021/10/28 02:23:39;;;;;;;;;;;;;;;21.75;51.13;100952.56;2092406;28;989;-56
2021/10/28 02:24:39;;;;;;;;;;;;;;;21.68;52.59;100956.41;2092268;28;1995;-56
2021/10/28 02:25:39;;;;;;;;;;;;;;;21.63;52.93;100955.69;2092325;28;793;-56
2021/10/28 02:26:39;;;;;;;;;;;;;;;21.65;51.85;100958.31;2091999;28;764;-56
2021/10/28 02:27:39;;;;;;;;;;;;;;;21.66;52.49;100958.28;2092344;28;941;-56
2021/10/28 02:28:39;;;;;;;;;;;;;;;21.73;51.57;100956.22;2092326;28;970;-56
2021/10/28 02:29:40;;;;;;;;;;;;;;;21.76;51.77;100948.94;2092330;28;818;-56
2021/10/28 02:30:40;;;;;;;;;;;;;;;21.76;52.56;100954.31;2092248;28;974;-56
2021/10/28 02:31:43;;;;;;;;;;;;;;;21.70;51.33;100950.94;2083395;28;836;-56
2021/10/28 02:32:45;;;;;;;;;;;;;;;21.67;52.27;100954.66;2083839;28;818;-56
2021/10/28 02:33:45;;;;;;;;;;;;;;;21.77;51.37;100955.19;2092341;28;898;-56
2021/10/28 02:34:45;;;;;;;;;;;;;;;21.76;51.77;100958.81;2092173;28;734;-56
2021/10/28 02:35:45;;;;;;;;;;;;;;;21.73;52.29;100959.81;2092312;28;847;-56
2021/10/28 02:36:45;;;;;;;;;;;;;;;21.68;51.93;100956.41;2092324;28;1036;-56
2021/10/28 02:37:46;;;;;;;;;;;;;;;21.72;53.14;100971.53;2092013;28;1454;-56
2021/10/28 02:38:46;;;;;;;;;;;;;;;21.68;53.28;100966.28;2092279;28;1017;-57
2021/10/28 02:39:48;;;;;;;;;;;;;;;21.69;52.51;100968.06;2092208;28;993;-56
2021/10/28 02:40:48;;;;;;;;;;;;;;;21.74;51.32;100961.59;2092030;28;1178;-56
2021/10/28 02:41:48;;;;;;;;;;;;;;;21.66;51.58;100965.47;2092233;28;847;-56
2021/10/28 02:42:48;;;;;;;;;;;;;;;21.69;52.98;100966.25;2092150;28;784;-56
2021/10/28 02:43:48;;;;;;;;;;;;;;;21.71;52.22;100967.09;2091877;28;784;-56
2021/10/28 02:44:49;;;;;;;;;;;;;;;21.66;52.11;100965.47;2092125;28;1889;-56
2021/10/28 02:45:50;;;;;;;;;;;;;;;21.70;51.84;100967.13;2092200;28;1028;-56
2021/10/28 02:46:50;;;;;;;;;;;;;;;21.67;53.79;100973.53;2092226;28;837;-56
2021/10/28 02:47:50;;;;;;;;;;;;;;;21.79;51.21;100968.59;2092102;28;842;-56
2021/10/28 02:48:51;;;;;;;;;;;;;;;21.76;51.82;100975.91;2091074;28;818;-56
2021/10/28 02:49:51;;;;;;;;;;;;;;;21.67;51.79;100970.81;2092221;28;1174;-56
2021/10/28 02:50:51;;;;;;;;;;;;;;;21.68;52.38;100971.69;2092155;28;862;-56
2021/10/28 02:51:51;;;;;;;;;;;;;;;21.68;52.14;100966.28;2091877;28;833;-56
2021/10/28 02:52:51;;;;;;;;;;;;;;;21.60;53.46;100983.59;2092192;28;853;-56
2021/10/28 02:53:52;;;;;;;;;;;;;;;21.62;51.86;100983.59;2092101;28;887;-56
2021/10/28 02:54:55;;;;;;;;;;;;;;;21.69;52.71;100978.84;2091961;28;1160;-56
2021/10/28 02:55:55;;;;;;;;;;;;;;;21.74;51.92;100979.56;2091939;28;1085;-56
2021/10/28 02:56:55;;;;;;;;;;;;;;;21.74;52.40;100985.84;2092166;28;788;-56
2021/10/28 02:57:55;;;;;;;;;;;;;;;21.77;51.02;100987.53;2091782;28;1021;-56
2021/10/28 02:58:55;;;;;;;;;;;;;;;21.76;51.99;100988.47;2092086;28;827;-56
2021/10/28 02:59:56;;;;;;;;;;;;;;;21.68;52.39;100994.16;2092038;28;906;-56
2021/10/28 03:00:56;;;;;;;;;;;;;;;21.69;52.27;100989.63;2091791;28;771;-56
2021/10/28 03:01:56;;;;;;;;;;;;;;;21.75;51.12;100978.63;2091982;28;1230;-56
2021/10/28 03:02:56;;;;;;;;;;;;;;;21.70;52.21;100986.91;2092112;28;779;-56
2021/10/28 03:03:56;;;;;;;;;;;;;;;21.61;52.91;100989.88;2091838;28;933;-56
2021/10/28 03:04:56;;;;;;;;;;;;;;;21.66;52.76;100989.75;2091905;28;1979;-56
2021/10/28 03:05:57;;;;;;;;;;;;;;;21.70;52.06;100991.38;2092023;28;783;-56
2021/10/28 03:06:57;;;;;;;;;;;;;;;21.66;53.64;101001.41;2091764;28;926;-56
2021/10/28 03:07:57;;;;;;;;;;;;;;;21.60;52.84;100999.75;2091881;28;768;-56
2021/10/28 03:08:57;;;;;;;;;;;;;;;21.62;52.33;100997.06;2092014;28;834;-56
2021/10/28 03:09:57;;;;;;;;;;;;;;;21.70;52.67;100992.28;2091777;28;1420;-56
2021/10/28 03:10:58;;;;;;;;;;;;;;;21.67;52.08;100987.00;2091789;28;1318;-56
2021/10/28 03:11:59;;;;;;;;;;;;;;;21.68;52.05;100975.28;2091987;28;811;-56
2021/10/28 03:12:59;;;;;;;;;;;;;;;21.65;52.04;100961.00;2091990;28;803;-56
2021/10/28 03:14:00;;;;;;;;;;;;;;;21.73;51.99;100962.53;2092044;28;779;-57
2021/10/28 03:15:03;;;;;;;;;;;;;;;21.71;51.19;100967.09;2092027;28;820;-56
2021/10/28 03:16:23;;;;;;;;;;;;;;;21.68;51.43;100964.50;2091718;28;815;-56
2021/10/28 03:17:30;;;;;;;;;;;;;;;21.60;52.42;100969.25;2092051;28;800;-56
2021/10/28 03:26:20;;;;;;;;;;;;;;;21.74;51.32;100974.16;2042470;29;935;-56
2021/10/28 03:27:20;;;;;;;;;;;;;;;21.69;52.29;100971.66;2042491;29;773;-56
2021/10/28 03:28:21;;;;;;;;;;;;;;;21.64;52.66;100975.44;2042438;29;837;-56
2021/10/28 03:29:21;;;;;;;;;;;;;;;21.72;52.22;100973.34;2042483;29;1097;-56
2021/10/28 03:30:21;;;;;;;;;;;;;;;21.64;52.36;100975.44;2042390;29;926;-56
2021/10/28 03:31:21;;;;;;;;;;;;;;;21.55;51.50;100971.22;2042482;29;837;-56
2021/10/28 03:32:22;;;;;;;;;;;;;;;21.67;51.78;100969.94;2042373;29;979;-57
2021/10/28 03:33:23;;;;;;;;;;;;;;;21.73;52.38;100976.00;2042495;29;1041;-56
2021/10/28 03:34:24;;;;;;;;;;;;;;;21.66;52.16;100977.16;2042373;29;884;-56
2021/10/28 03:35:24;;;;;;;;;;;;;;;21.65;52.37;100972.69;2042068;29;1056;-56
2021/10/28 03:36:49;;;;;;;;;;;;;;;21.65;52.07;100974.50;2042363;29;983;-56
2021/10/28 03:37:58;;;;;;;;;;;;;;;21.56;52.44;100973.84;2047864;29;1502;-56
2021/10/28 03:39:27;;;;;;;;;;;;;;;21.57;52.56;100978.31;2050334;29;1122;-56
2021/10/28 03:43:58;;;;;;;;;;;;;;;21.65;51.29;100964.59;2042368;29;952;-56
2021/10/28 03:45:27;;;;;;;;;;;;;;;21.55;51.95;100963.13;2042016;29;1910;-57
2021/10/28 03:48:07;;;;;;;;;;;;;;;21.56;52.37;100973.00;2034547;29;714;-57
2021/10/28 03:49:29;;;;;;;;;;;;;;;21.58;52.80;100968.41;2034393;29;1534;-57
2021/10/28 03:52:28;;;;;;;;;;;;;;;21.56;52.93;100975.69;2034608;29;1311;-57
2021/10/28 04:00:41;;;;;;;;;;;;;;;21.59;53.53;100972.88;2042288;29;958;-57
2021/10/28 04:02:42;;;;;;;;;;;;;;;21.59;52.01;100973.75;2046717;29;1796;-57
2021/10/28 04:08:37;;;;;;;;;;;;;;;22.97;49.83;100959.56;2057869;28;710;-57
2021/10/28 04:20:19;;;;;;;;;;;;;;;23.76;47.34;100952.63;2075071;28;708;-57
2021/10/28 04:29:06;;;;;;;;;;;;;;;24.05;47.80;100962.16;2075236;28;815;-55
2021/10/28 04:30:06;;;;;;;;;;;;;;;24.04;48.33;100963.09;2075162;28;788;-57
2021/10/28 04:31:07;;;;;;;;;;;;;;;23.98;47.59;100963.34;2075046;28;831;-58
2021/10/28 04:32:07;;;;;;;;;;;;;;;24.04;48.11;100959.50;2075009;28;807;-57
2021/10/28 04:33:07;;;;;;;;;;;;;;;24.13;47.75;100951.84;2075025;28;821;-57
2021/10/28 04:34:09;;;;;;;;;;;;;;;24.08;51.28;100959.31;2075067;28;839;-57
2021/10/28 04:35:09;;;;;;;;;;;;;;;24.18;47.08;100950.72;2075115;28;930;-57
2021/10/28 04:36:11;;;;;;;;;;;;;;;24.12;46.31;100958.22;2074970;28;858;-57
2021/10/28 04:37:11;;;;;;;;;;;;;;;24.15;47.72;100954.47;2074419;28;1451;-57
2021/10/28 04:38:11;;;;;;;;;;;;;;;24.19;47.71;100955.19;2066869;28;842;-57
2021/10/28 04:39:11;;;;;;;;;;;;;;;24.20;48.50;100956.94;2066642;28;780;-57
2021/10/28 04:40:12;;;;;;;;;;;;;;;24.30;50.49;100957.41;2066867;28;839;-57
2021/10/28 04:41:13;;;;;;;;;;;;;;;24.22;47.85;100955.03;2066960;28;696;-57
2021/10/28 04:42:13;;;;;;;;;;;;;;;24.25;47.90;100950.38;2066940;28;815;-57
2021/10/28 04:43:14;;;;;;;;;;;;;;;24.23;47.87;100956.78;2067009;28;1025;-57
2021/10/28 04:44:14;;;;;;;;;;;;;;;24.28;47.49;100954.75;2066504;28;985;-57
2021/10/28 04:45:14;;;;;;;;;;;;;;;24.29;47.66;100948.38;2066771;28;1947;-56
2021/10/28 04:46:14;;;;;;;;;;;;;;;24.27;47.64;100950.28;2066848;28;789;-57
2021/10/28 04:47:14;;;;;;;;;;;;;;;24.25;48.00;100944.97;2082470;28;903;-57
2021/10/28 04:48:14;;;;;;;;;;;;;;;24.28;47.71;100944.81;2082631;28;868;-57
2021/10/28 04:49:15;;;;;;;;;;;;;;;24.34;47.89;100942.78;2066988;28;876;-57
2021/10/28 04:50:15;;;;;;;;;;;;;;;24.28;46.80;100943.94;2066845;28;911;-57
2021/10/28 04:51:15;;;;;;;;;;;;;;;24.41;46.99;100946.94;2066858;28;962;-57
2021/10/28 04:52:15;;;;;;;;;;;;;;;24.48;48.14;100942.97;2066679;28;772;-57
2021/10/28 04:53:16;;;;;;;;;;;;;;;24.40;48.79;100945.19;2066878;28;898;-57
2021/10/28 04:54:16;;;;;;;;;;;;;;;24.32;47.22;100953.66;2066894;28;811;-57
2021/10/28 04:55:16;;;;;;;;;;;;;;;24.36;46.81;100939.03;2066792;28;990;-57
2021/10/28 04:56:16;;;;;;;;;;;;;;;24.43;48.43;100942.34;2075267;28;1332;-57
2021/10/28 04:57:16;;;;;;;;;;;;;;;24.37;46.73;100931.81;2083089;28;1029;-57
2021/10/28 04:58:16;;;;;;;;;;;;;;;24.38;48.34;100933.56;2083024;28;989;-57
2021/10/28 04:59:17;;;;;;;;;;;;;;;24.50;48.64;100934.78;2083110;28;878;-57
2021/10/28 05:00:17;;;;;;;;;;;;;;;24.46;47.54;100925.06;2083160;28;780;-57
2021/10/28 05:01:19;;;;;;;;;;;;;;;24.38;48.00;100931.72;2083152;28;783;-57
2021/10/28 05:02:19;;;;;;;;;;;;;;;24.33;48.35;100922.06;2083155;28;913;-58
2021/10/28 05:03:19;;;;;;;;;;;;;;;24.41;47.23;100917.16;2082692;28;850;-57
2021/10/28 05:04:20;;;;;;;;;;;;;;;24.40;47.93;100920.81;2083074;28;768;-57
2021/10/28 05:05:20;;;;;;;;;;;;;;;24.45;47.55;100921.44;2083047;28;1972;-57
2021/10/28 05:06:20;;;;;;;;;;;;;;;24.45;47.31;100907.91;2083085;28;824;-57
2021/10/28 05:07:21;;;;;;;;;;;;;;;24.42;46.94;100911.66;2083111;28;966;-57
2021/10/28 05:08:21;;;;;;;;;;;;;;;24.56;48.71;100920.94;2085889;28;1372;-57
2021/10/28 05:09:28;;;;;;;;;;;;;;;24.49;48.22;100908.66;2091155;28;775;-57
2021/10/28 05:10:31;;;;;;;;;;;;;;;24.53;47.08;100916.53;2091290;28;843;-57
2021/10/28 05:11:31;;;;;;;;;;;;;;;24.51;51.72;100917.59;2091340;28;847;-57
2021/10/28 05:12:31;;;;;;;;;;;;;;;24.56;50.94;100921.81;2092926;28;776;-57
2021/10/28 05:13:31;;;;;;;;;;;;;;;24.69;48.26;100921.22;2092921;28;863;-57
2021/10/28 05:14:31;;;;;;;;;;;;;;;24.67;49.60;100920.41;2092881;28;842;-57
2021/10/28 05:15:31;;;;;;;;;;;;;;;24.65;47.71;100920.50;2092890;28;1311;-57
2021/10/28 05:16:32;;;;;;;;;;;;;;;24.77;47.77;100921.75;2092770;28;974;-57
2021/10/28 05:17:32;;;;;;;;;;;;;;;24.71;49.05;100920.19;2092958;28;834;-57
2021/10/28 05:18:39;;;;;;;;;;;;;;;24.70;47.87;100917.53;2092847;28;796;-57
2021/10/28 05:19:39;;;;;;;;;;;;;;;24.64;49.42;100925.97;2092508;28;894;-57
2021/10/28 05:20:40;;;;;;;;;;;;;;;24.65;49.20;100930.44;2092882;28;798;-57
2021/10/28 05:21:40;;;;;;;;;;;;;;;24.71;48.44;100927.44;2092895;28;886;-57
2021/10/28 05:22:40;;;;;;;;;;;;;;;24.71;46.99;100933.75;2092497;28;993;-57
2021/10/28 05:23:40;;;;;;;;;;;;;;;24.64;47.87;100926.88;2092813;28;993;-58
2021/10/28 05:24:41;;;;;;;;;;;;;;;24.67;48.42;100931.25;2092795;28;2005;-57
2021/10/28 05:25:41;;;;;;;;;;;;;;;24.70;46.08;100931.97;2092852;28;1032;-57
2021/10/28 05:26:41;;;;;;;;;;;;;;;24.77;49.18;100929.88;2092877;28;862;-57
2021/10/28 05:27:41;;;;;;;;;;;;;;;24.71;48.10;100930.13;2092696;28;945;-57
2021/10/28 05:28:41;;;;;;;;;;;;;;;24.71;49.08;100933.75;2092743;28;986;-57
2021/10/28 05:29:41;;;;;;;;;;;;;;;24.68;47.26;100924.88;2092828;28;835;-57
2021/10/28 05:30:42;;;;;;;;;;;;;;;24.74;49.30;100934.53;2092750;28;1009;-57
2021/10/28 05:31:42;;;;;;;;;;;;;;;24.76;47.90;100938.06;2092749;28;1426;-57
2021/10/28 05:32:42;;;;;;;;;;;;;;;24.64;50.15;100937.69;2092711;28;993;-57
2021/10/28 05:33:42;;;;;;;;;;;;;;;24.64;49.42;100944.94;2092788;28;718;-57
2021/10/28 05:34:44;;;;;;;;;;;;;;;24.72;50.80;100945.47;2092714;28;774;-57
2021/10/28 05:35:44;;;;;;;;;;;;;;;24.66;49.43;100946.63;2092826;28;882;-56
2021/10/28 05:36:44;;;;;;;;;;;;;;;24.67;48.66;100950.19;2092709;28;863;-57
2021/10/28 05:37:44;;;;;;;;;;;;;;;24.75;49.35;100950.75;2092638;28;1439;-57
2021/10/28 05:38:45;;;;;;;;;;;;;;;24.75;48.29;100947.13;2092732;28;849;-57
2021/10/28 05:39:45;;;;;;;;;;;;;;;24.79;51.52;100948.75;2092689;28;1037;-57
2021/10/28 05:40:45;;;;;;;;;;;;;;;24.82;49.47;100943.16;2092624;28;780;-57
2021/10/28 05:41:47;;;;;;;;;;;;;;;24.81;49.23;100949.53;2092663;28;974;-57
2021/10/28 05:42:52;;;;;;;;;;;;;;;24.76;47.06;100957.00;2092572;28;806;-57
2021/10/28 05:43:52;;;;;;;;;;;;;;;24.77;48.11;100946.13;2092576;28;802;-57
2021/10/28 05:44:52;;;;;;;;;;;;;;;24.74;47.85;100945.38;2092661;28;1890;-57
2021/10/28 05:45:52;;;;;;;;;;;;;;;24.78;50.17;100953.28;2092618;28;985;-57
2021/10/28 05:46:52;;;;;;;;;;;;;;;24.68;45.83;100950.13;2092725;28;863;-57
2021/10/28 05:47:52;;;;;;;;;;;;;;;24.79;51.43;100956.88;2092738;28;827;-57
2021/10/28 05:48:53;;;;;;;;;;;;;;;24.81;48.27;100952.25;2092190;28;886;-57
2021/10/28 05:49:54;;;;;;;;;;;;;;;24.75;47.76;100947.13;2092648;28;1197;-57
2021/10/28 05:50:54;;;;;;;;;;;;;;;24.70;51.31;100948.25;2092704;28;846;-56
2021/10/28 05:51:54;;;;;;;;;;;;;;;24.65;49.13;100942.16;2092667;28;845;-56
2021/10/28 05:52:56;;;;;;;;;;;;;;;24.83;47.83;100943.09;2092685;28;803;-57
2021/10/28 05:53:56;;;;;;;;;;;;;;;24.81;47.15;100945.00;2092338;28;883;-57
2021/10/28 05:54:57;;;;;;;;;;;;;;;24.82;49.50;100946.78;2092543;28;903;-57
2021/10/28 05:55:57;;;;;;;;;;;;;;;24.81;49.51;100942.31;2092473;28;1213;-57
2021/10/28 05:56:57;;;;;;;;;;;;;;;24.82;50.37;100944.06;2092453;28;822;-57
2021/10/28 05:57:57;;;;;;;;;;;;;;;24.72;47.61;100945.47;2092565;28;981;-57
2021/10/28 05:58:58;;;;;;;;;;;;;;;24.75;50.20;100952.56;2092649;28;1236;-57
2021/10/28 05:59:58;;;;;;;;;;;;;;;24.84;48.42;100947.56;2092579;28;831;-57
2021/10/28 06:01:01;;;;;;;;;;;;;;;24.87;46.83;100949.25;2090937;28;1512;-57
2021/10/28 06:02:02;;;;;;;;;;;;;;;24.88;46.84;100948.28;2087141;28;1410;-57
2021/10/28 06:03:02;;;;;;;;;;;;;;;24.86;52.48;100958.31;2085217;28;1689;-57
2021/10/28 06:04:02;;;;;;;;;;;;;;;24.81;51.09;100973.91;2091187;28;1772;-58
2021/10/28 06:05:04;;;;;;;;;;;;;;;24.75;47.75;100972.41;2088175;28;1910;-57
2021/10/28 06:06:04;;;;;;;;;;;;;;;24.72;52.31;100969.84;2092353;28;826;-59
2021/10/28 06:07:05;;;;;;;;;;;;;;;24.73;52.44;100968.03;2091542;28;1687;-59
2021/10/28 06:08:05;;;;;;;;;;;;;;;24.59;52.05;100961.41;2091749;28;1665;-62
2021/10/28 06:09:05;;;;;;;;;;;;;;;24.61;50.50;100962.22;2090624;28;1441;-58
2021/10/28 06:10:05;;;;;;;;;;;;;;;24.60;51.90;100959.56;2092450;28;907;-57
2021/10/28 06:11:06;;;;;;;;;;;;;;;24.71;47.45;100958.13;2089185;28;1715;-57
2021/10/28 06:12:07;;;;;;;;;;;;;;;24.79;54.25;100965.88;2087672;28;1685;-57
2021/10/28 06:13:08;;;;;;;;;;;;;;;24.63;48.35;100960.31;2086240;28;1267;-57
2021/10/28 06:14:08;;;;;;;;;;;;;;;24.68;51.49;100969.09;2091534;28;1950;-58
2021/10/28 06:15:10;;;;;;;;;;;;;;;24.63;51.13;100975.69;2092147;28;1895;-58
2021/10/28 06:16:11;;;;;;;;;;;;;;;24.60;51.45;100981.25;2090734;28;1695;-59
2021/10/28 06:17:14;;;;;;;;;;;;;;;24.64;50.94;100974.72;2086617;28;1677;-59
2021/10/28 06:18:34;;;;;;;;;;;;;;;24.58;51.41;100982.19;2086187;28;1657;-57